Wetterstation Vordersexau
Wetterdaten: Woche 06.06.16 - 12.06.16 (KW23)
Datum Zeit Temp. A. Feuchte A. Luftdruck Regen Wind Richtung Taupunkt Windchill Windben
06.06.2016 00:00 15,8 C 83 % 1016,1 hPa 1,2 l/m 0,0 km/h O-SO 12,9 C 15,8 C 0,0 km/h
06.06.2016 01:00 15,1 C 83 % 1016,0 hPa 0,4 l/m 0,0 km/h O-SO 12,2 C 15,1 C 0,0 km/h
06.06.2016 02:00 14,1 C 82 % 1015,6 hPa 0,0 l/m 0,0 km/h O-SO 11,1 C 14,1 C 0,0 km/h
06.06.2016 03:00 13,4 C 82 % 1015,9 hPa 0,0 l/m 0,0 km/h O-SO 10,4 C 13,4 C 0,0 km/h
06.06.2016 04:00 13,3 C 82 % 1015,7 hPa 0,0 l/m 0,0 km/h O-SO 10,3 C 13,3 C 0,0 km/h
06.06.2016 05:00 12,8 C 81 % 1016,0 hPa 0,0 l/m 0,0 km/h O-SO 9,6 C 12,8 C 0,0 km/h
06.06.2016 06:00 13,6 C 80 % 1016,3 hPa 0,0 l/m 0,0 km/h O-SO 10,2 C 13,6 C 0,0 km/h
06.06.2016 07:00 16,2 C 72 % 1016,6 hPa 0,0 l/m 0,0 km/h SO 11,1 C 16,2 C 0,0 km/h
06.06.2016 08:00 20,4 C 80 % 1016,9 hPa 0,0 l/m 0,0 km/h W-NW 16,8 C 20,4 C 0,0 km/h
06.06.2016 09:00 22,5 C 81 % 1017,1 hPa 0,0 l/m 0,0 km/h W 19,1 C 22,5 C 0,0 km/h
06.06.2016 10:00 24,8 C 68 % 1017,0 hPa 0,0 l/m 0,0 km/h N-NW 18,5 C 24,8 C 0,0 km/h
06.06.2016 11:00 24,2 C 67 % 1016,7 hPa 0,0 l/m 0,0 km/h W 17,7 C 24,2 C 0,0 km/h
06.06.2016 12:00 24,6 C 68 % 1016,7 hPa 0,0 l/m 3,2 km/h W 18,3 C 24,6 C 1,8 km/h
06.06.2016 13:00 26,3 C 64 % 1016,3 hPa 0,0 l/m 6,5 km/h N-NO 18,9 C 26,3 C 3,6 km/h
06.06.2016 14:00 25,5 C 63 % 1015,9 hPa 0,0 l/m 16,2 km/h NW 17,9 C 23,8 C 9,0 km/h
06.06.2016 15:00 23,5 C 74 % 1015,7 hPa 0,4 l/m 0,0 km/h S-SO 18,6 C 23,5 C 0,0 km/h
06.06.2016 16:00 24,3 C 76 % 1015,3 hPa 0,0 l/m 2,6 km/h O-SO 19,8 C 24,3 C 1,4 km/h
06.06.2016 17:00 31,3 C 55 % 1015,1 hPa 0,0 l/m 0,0 km/h N-NW 21,2 C 31,3 C 0,0 km/h
06.06.2016 18:00 32,7 C 46 % 1014,9 hPa 0,0 l/m 0,0 km/h N 19,5 C 32,7 C 0,0 km/h
06.06.2016 19:00 24,9 C 61 % 1015,2 hPa 0,0 l/m 3,2 km/h N-NO 16,8 C 24,9 C 1,8 km/h
06.06.2016 20:00 20,9 C 76 % 1015,7 hPa 0,0 l/m 0,0 km/h N-NO 16,5 C 20,9 C 0,0 km/h
06.06.2016 21:00 19,1 C 81 % 1016,1 hPa 0,0 l/m 0,0 km/h O 15,8 C 19,1 C 0,0 km/h
06.06.2016 22:00 17,9 C 84 % 1016,3 hPa 0,0 l/m 0,0 km/h SO 15,2 C 17,9 C 0,0 km/h
06.06.2016 23:00 16,6 C 85 % 1016,6 hPa 0,0 l/m 0,0 km/h O-SO 14,1 C 16,6 C 0,0 km/h
07.06.2016 00:00 16,1 C 85 % 1016,6 hPa 0,0 l/m 0,0 km/h O-SO 13,6 C 16,1 C 0,0 km/h
07.06.2016 01:00 15,8 C 85 % 1016,5 hPa 0,0 l/m 0,0 km/h N-NO 13,3 C 15,8 C 0,0 km/h
07.06.2016 02:00 14,7 C 85 % 1016,5 hPa 0,0 l/m 0,0 km/h O-SO 12,2 C 14,7 C 0,0 km/h
07.06.2016 03:00 14,2 C 85 % 1017,0 hPa 0,0 l/m 0,0 km/h NO 11,7 C 14,2 C 0,0 km/h
07.06.2016 04:00 13,8 C 85 % 1017,0 hPa 0,0 l/m 0,0 km/h SO 11,3 C 13,8 C 0,0 km/h
07.06.2016 05:00 13,9 C 84 % 1017,5 hPa 0,0 l/m 0,0 km/h SO 11,2 C 13,9 C 0,0 km/h
07.06.2016 06:00 13,6 C 84 % 1018,2 hPa 0,0 l/m 0,0 km/h O-SO 10,9 C 13,6 C 0,0 km/h
07.06.2016 07:00 15,8 C 81 % 1018,3 hPa 0,0 l/m 0,0 km/h SO 12,5 C 15,8 C 0,0 km/h
07.06.2016 08:00 17,3 C 85 % 1018,7 hPa 0,0 l/m 0,0 km/h SO 14,8 C 17,3 C 0,0 km/h
07.06.2016 09:00 22,6 C 77 % 1018,5 hPa 0,0 l/m 0,0 km/h SO 18,4 C 22,6 C 0,0 km/h
07.06.2016 10:00 27,5 C 62 % 1018,5 hPa 0,0 l/m 0,0 km/h W-SW 19,6 C 27,5 C 0,0 km/h
07.06.2016 11:00 28,7 C 57 % 1018,3 hPa 0,0 l/m 0,0 km/h N-NO 19,3 C 28,7 C 0,0 km/h
07.06.2016 12:00 28,9 C 57 % 1018,0 hPa 0,0 l/m 0,0 km/h N-NW 19,5 C 28,9 C 0,0 km/h
07.06.2016 13:00 30,8 C 51 % 1017,3 hPa 0,0 l/m 0,0 km/h W 19,5 C 30,8 C 0,0 km/h
07.06.2016 14:00 27,5 C 58 % 1017,5 hPa 0,0 l/m 19,4 km/h W 18,5 C 25,9 C 10,8 km/h
07.06.2016 15:00 25,6 C 64 % 1017,8 hPa 0,0 l/m 1,9 km/h SO 18,3 C 25,6 C 1,1 km/h
07.06.2016 16:00 20,9 C 72 % 1017,6 hPa 0,4 l/m 20,7 km/h O-SO 15,7 C 17,3 C 11,5 km/h
07.06.2016 17:00 21,5 C 68 % 1017,2 hPa 0,4 l/m 11,7 km/h O 15,3 C 19,8 C 6,5 km/h
07.06.2016 18:00 21,6 C 72 % 1017,5 hPa 0,0 l/m 0,0 km/h O-SO 16,3 C 21,6 C 0,0 km/h
07.06.2016 19:00 18,3 C 80 % 1017,9 hPa 0,0 l/m 0,0 km/h O-SO 14,8 C 18,3 C 0,0 km/h
07.06.2016 20:00 17,8 C 82 % 1017,7 hPa 0,0 l/m 0,0 km/h SO 14,7 C 17,8 C 0,0 km/h
07.06.2016 21:00 16,4 C 84 % 1017,9 hPa 0,0 l/m 0,0 km/h SO 13,7 C 16,4 C 0,0 km/h
07.06.2016 22:00 16,1 C 84 % 1018,4 hPa 0,0 l/m 0,0 km/h SO 13,4 C 16,1 C 0,0 km/h
07.06.2016 23:00 15,9 C 85 % 1018,5 hPa 0,0 l/m 0,0 km/h O-SO 13,4 C 15,9 C 0,0 km/h
08.06.2016 00:00 14,9 C 85 % 1018,1 hPa 0,0 l/m 0,6 km/h O-SO 12,4 C 14,9 C 0,4 km/h
08.06.2016 01:00 14,6 C 85 % 1017,9 hPa 0,0 l/m 0,0 km/h SO 12,1 C 14,6 C 0,0 km/h
08.06.2016 02:00 14,9 C 83 % 1017,4 hPa 0,0 l/m 0,0 km/h SO 12,0 C 14,9 C 0,0 km/h
08.06.2016 03:00 15,3 C 83 % 1017,3 hPa 0,0 l/m 0,0 km/h O-NO 12,4 C 15,3 C 0,0 km/h
08.06.2016 04:00 15,4 C 82 % 1017,3 hPa 0,0 l/m 0,0 km/h O-NO 12,3 C 15,4 C 0,0 km/h
08.06.2016 05:00 15,5 C 82 % 1017,3 hPa 0,0 l/m 0,0 km/h O-NO 12,4 C 15,5 C 0,0 km/h
08.06.2016 06:00 16,4 C 82 % 1017,0 hPa 0,0 l/m 0,0 km/h O-NO 13,3 C 16,4 C 0,0 km/h
08.06.2016 07:00 18,2 C 82 % 1017,1 hPa 0,0 l/m 0,0 km/h O-SO 15,1 C 18,2 C 0,0 km/h
08.06.2016 08:00 17,6 C 84 % 1017,3 hPa 1,2 l/m 0,0 km/h O-SO 14,9 C 17,6 C 0,0 km/h
08.06.2016 09:00 19,9 C 83 % 1017,0 hPa 0,0 l/m 0,0 km/h N 16,9 C 19,9 C 0,0 km/h
08.06.2016 10:00 22,8 C 80 % 1016,9 hPa 0,0 l/m 5,2 km/h O-SO 19,2 C 22,8 C 2,9 km/h
08.06.2016 11:00 22,2 C 76 % 1016,7 hPa 0,0 l/m 0,0 km/h O-SO 17,8 C 22,2 C 0,0 km/h
08.06.2016 12:00 21,6 C 78 % 1016,2 hPa 0,0 l/m 0,0 km/h S-SW 17,6 C 21,6 C 0,0 km/h
08.06.2016 13:00 26,5 C 62 % 1015,4 hPa 0,0 l/m 1,9 km/h N-NO 18,6 C 26,5 C 1,1 km/h
08.06.2016 14:00 21,4 C 71 % 1015,1 hPa 0,0 l/m 0,0 km/h N 15,9 C 21,4 C 0,0 km/h
08.06.2016 15:00 20,1 C 78 % 1015,5 hPa 0,0 l/m 0,0 km/h W-SW 16,1 C 20,1 C 0,0 km/h
08.06.2016 16:00 18,4 C 80 % 1015,7 hPa 0,0 l/m 14,9 km/h W-NW 14,9 C 15,3 C 8,3 km/h
08.06.2016 17:00 17,4 C 83 % 1015,8 hPa 0,0 l/m 0,0 km/h W 14,5 C 17,4 C 0,0 km/h
08.06.2016 18:00 16,6 C 85 % 1015,5 hPa 0,4 l/m 0,0 km/h W 14,1 C 16,6 C 0,0 km/h
08.06.2016 19:00 16,5 C 85 % 1015,4 hPa 2,9 l/m 0,0 km/h N-NO 14,0 C 16,5 C 0,0 km/h
08.06.2016 20:00 16,9 C 84 % 1015,7 hPa 0,0 l/m 0,0 km/h NW 14,2 C 16,9 C 0,0 km/h
08.06.2016 21:00 16,2 C 84 % 1015,8 hPa 7,0 l/m 0,0 km/h NW 13,5 C 16,2 C 0,0 km/h
08.06.2016 22:00 16,1 C 83 % 1015,7 hPa 0,0 l/m 0,0 km/h W-NW 13,2 C 16,1 C 0,0 km/h
08.06.2016 23:00 15,6 C 80 % 1015,6 hPa 0,4 l/m 0,0 km/h W-SW 12,2 C 15,6 C 0,0 km/h
09.06.2016 00:00 14,9 C 80 % 1015,9 hPa 0,0 l/m 0,0 km/h W-SW 11,5 C 14,9 C 0,0 km/h
09.06.2016 01:00 14,6 C 80 % 1015,9 hPa 0,0 l/m 0,0 km/h W-SW 11,2 C 14,6 C 0,0 km/h
09.06.2016 02:00 14,2 C 80 % 1015,7 hPa 0,0 l/m 0,0 km/h W-SW 10,8 C 14,2 C 0,0 km/h
09.06.2016 03:00 14,4 C 80 % 1015,2 hPa 0,0 l/m 0,0 km/h W-SW 11,0 C 14,4 C 0,0 km/h
09.06.2016 04:00 14,3 C 79 % 1015,0 hPa 0,0 l/m 0,0 km/h W-SW 10,7 C 14,3 C 0,0 km/h
09.06.2016 05:00 14,1 C 79 % 1014,9 hPa 0,0 l/m 0,0 km/h W-SW 10,5 C 14,1 C 0,0 km/h
09.06.2016 06:00 14,6 C 78 % 1015,3 hPa 0,0 l/m 0,0 km/h S 10,8 C 14,6 C 0,0 km/h
09.06.2016 07:00 15,2 C 78 % 1015,0 hPa 0,0 l/m 0,0 km/h SW 11,4 C 15,2 C 0,0 km/h
09.06.2016 08:00 16,1 C 79 % 1015,3 hPa 0,0 l/m 0,0 km/h W-SW 12,5 C 16,1 C 0,0 km/h
09.06.2016 09:00 17,9 C 81 % 1015,4 hPa 0,0 l/m 0,0 km/h NW 14,6 C 17,9 C 0,0 km/h
09.06.2016 10:00 21,8 C 72 % 1015,1 hPa 0,0 l/m 10,4 km/h NW 16,5 C 20,5 C 5,8 km/h
09.06.2016 11:00 22,4 C 63 % 1015,2 hPa 0,0 l/m 0,0 km/h W 15,0 C 22,4 C 0,0 km/h
09.06.2016 12:00 22,3 C 61 % 1015,1 hPa 0,0 l/m 0,0 km/h S-SW 14,4 C 22,3 C 0,0 km/h
09.06.2016 13:00 24,4 C 59 % 1014,7 hPa 0,0 l/m 21,4 km/h W-NW 15,9 C 21,7 C 11,9 km/h
09.06.2016 14:00 25,0 C 52 % 1014,3 hPa 0,0 l/m 9,7 km/h W 14,4 C 24,2 C 5,4 km/h
09.06.2016 15:00 25,9 C 47 % 1013,9 hPa 0,0 l/m 1,9 km/h N 13,7 C 25,9 C 1,1 km/h
09.06.2016 16:00 28,1 C 39 % 1013,5 hPa 0,0 l/m 2,6 km/h N 12,8 C 28,1 C 1,4 km/h
09.06.2016 17:00 31,4 C 31 % 1013,1 hPa 0,0 l/m 0,0 km/h NW 12,2 C 31,4 C 0,0 km/h
09.06.2016 18:00 30,1 C 34 % 1013,0 hPa 0,0 l/m 7,8 km/h N-NO 12,5 C 30,0 C 4,3 km/h
09.06.2016 19:00 23,6 C 47 % 1012,7 hPa 0,0 l/m 0,0 km/h N-NO 11,6 C 23,6 C 0,0 km/h
09.06.2016 20:00 19,9 C 60 % 1012,7 hPa 0,0 l/m 0,0 km/h O-SO 11,9 C 19,9 C 0,0 km/h
09.06.2016 21:00 16,6 C 72 % 1012,8 hPa 0,0 l/m 0,0 km/h O-SO 11,5 C 16,6 C 0,0 km/h
09.06.2016 22:00 15,1 C 78 % 1013,1 hPa 0,0 l/m 0,0 km/h SO 11,3 C 15,1 C 0,0 km/h
09.06.2016 23:00 14,6 C 79 % 1013,1 hPa 0,0 l/m 0,0 km/h SO 11,0 C 14,6 C 0,0 km/h
10.06.2016 00:00 13,6 C 82 % 1012,7 hPa 0,0 l/m 2,6 km/h O-SO 10,6 C 13,6 C 1,4 km/h
10.06.2016 01:00 12,1 C 83 % 1012,5 hPa 0,0 l/m 1,9 km/h N-NO 9,3 C 12,1 C 1,1 km/h
10.06.2016 02:00 11,8 C 85 % 1012,3 hPa 0,0 l/m 0,0 km/h NO 9,4 C 11,8 C 0,0 km/h
10.06.2016 03:00 12,4 C 85 % 1012,1 hPa 0,0 l/m 0,0 km/h SO 9,9 C 12,4 C 0,0 km/h
10.06.2016 04:00 11,3 C 86 % 1011,5 hPa 0,0 l/m 0,0 km/h SO 9,0 C 11,3 C 0,0 km/h
10.06.2016 05:00 10,7 C 86 % 1011,6 hPa 0,0 l/m 0,0 km/h SO 8,5 C 10,7 C 0,0 km/h
10.06.2016 06:00 10,9 C 86 % 1011,8 hPa 0,0 l/m 0,0 km/h O-SO 8,7 C 10,9 C 0,0 km/h
10.06.2016 07:00 14,5 C 85 % 1011,6 hPa 0,0 l/m 1,3 km/h SO 12,0 C 14,5 C 0,7 km/h
10.06.2016 08:00 22,9 C 65 % 1011,2 hPa 0,0 l/m 0,0 km/h W-SW 16,0 C 22,9 C 0,0 km/h
10.06.2016 09:00 24,4 C 57 % 1011,0 hPa 0,0 l/m 0,0 km/h W 15,3 C 24,4 C 0,0 km/h
10.06.2016 10:00 24,5 C 57 % 1010,8 hPa 0,0 l/m 0,0 km/h W-NW 15,4 C 24,5 C 0,0 km/h
10.06.2016 11:00 25,4 C 55 % 1010,5 hPa 0,0 l/m 0,0 km/h W 15,7 C 25,4 C 0,0 km/h
10.06.2016 12:00 25,4 C 54 % 1010,0 hPa 0,0 l/m 0,0 km/h NW 15,4 C 25,4 C 0,0 km/h
10.06.2016 13:00 26,4 C 51 % 1009,5 hPa 0,0 l/m 0,0 km/h N-NO 15,4 C 26,4 C 0,0 km/h
10.06.2016 14:00 28,0 C 44 % 1009,1 hPa 0,0 l/m 10,4 km/h S-SO 14,6 C 27,4 C 5,8 km/h
10.06.2016 15:00 27,5 C 45 % 1008,4 hPa 0,0 l/m 6,5 km/h N-NO 14,5 C 27,5 C 3,6 km/h
10.06.2016 16:00 29,1 C 37 % 1008,1 hPa 0,0 l/m 16,8 km/h W-NW 12,9 C 28,2 C 9,4 km/h
10.06.2016 17:00 30,5 C 33 % 1007,9 hPa 0,0 l/m 0,0 km/h N-NO 12,4 C 30,5 C 0,0 km/h
10.06.2016 18:00 29,6 C 34 % 1007,5 hPa 0,0 l/m 0,0 km/h N 12,1 C 29,6 C 0,0 km/h
10.06.2016 19:00 24,4 C 40 % 1007,4 hPa 0,0 l/m 0,0 km/h N 9,9 C 24,4 C 0,0 km/h
10.06.2016 20:00 19,9 C 58 % 1007,6 hPa 0,0 l/m 0,0 km/h O-SO 11,4 C 19,9 C 0,0 km/h
10.06.2016 21:00 17,7 C 69 % 1008,0 hPa 0,0 l/m 0,0 km/h O-SO 11,9 C 17,7 C 0,0 km/h
10.06.2016 22:00 16,3 C 72 % 1008,1 hPa 0,0 l/m 0,0 km/h O-NO 11,2 C 16,3 C 0,0 km/h
10.06.2016 23:00 16,2 C 76 % 1008,0 hPa 0,0 l/m 0,0 km/h O-SO 12,0 C 16,2 C 0,0 km/h
11.06.2016 00:00 15,9 C 77 % 1007,7 hPa 0,0 l/m 0,0 km/h O-SO 11,9 C 15,9 C 0,0 km/h
11.06.2016 01:00 15,3 C 80 % 1007,7 hPa 0,0 l/m 0,0 km/h O 11,9 C 15,3 C 0,0 km/h
11.06.2016 02:00 15,1 C 82 % 1007,7 hPa 0,0 l/m 0,0 km/h SW 12,0 C 15,1 C 0,0 km/h
11.06.2016 03:00 15,6 C 82 % 1007,0 hPa 0,0 l/m 3,9 km/h SO 12,5 C 15,6 C 2,2 km/h
11.06.2016 04:00 15,0 C 83 % 1007,0 hPa 0,0 l/m 0,0 km/h SW 12,1 C 15,0 C 0,0 km/h
11.06.2016 05:00 14,9 C 85 % 1008,4 hPa 0,0 l/m 0,0 km/h S 12,4 C 14,9 C 0,0 km/h
11.06.2016 06:00 14,6 C 85 % 1009,0 hPa 2,1 l/m 0,0 km/h SO 12,1 C 14,6 C 0,0 km/h
11.06.2016 07:00 14,8 C 85 % 1008,8 hPa 1,2 l/m 0,0 km/h SO 12,3 C 14,8 C 0,0 km/h
11.06.2016 08:00 16,2 C 85 % 1008,8 hPa 0,0 l/m 0,0 km/h O-SO 13,7 C 16,2 C 0,0 km/h
11.06.2016 09:00 17,8 C 85 % 1009,2 hPa 0,0 l/m 0,0 km/h W-SW 15,2 C 17,8 C 0,0 km/h
11.06.2016 10:00 19,0 C 83 % 1009,0 hPa 0,0 l/m 7,1 km/h W 16,0 C 18,7 C 4,0 km/h
11.06.2016 11:00 20,9 C 72 % 1008,8 hPa 0,0 l/m 20,7 km/h S-SW 15,7 C 17,3 C 11,5 km/h
11.06.2016 12:00 19,4 C 75 % 1008,9 hPa 0,0 l/m 24,0 km/h SW 14,8 C 14,7 C 13,3 km/h
11.06.2016 13:00 21,6 C 67 % 1008,6 hPa 0,0 l/m 23,3 km/h W 15,2 C 17,8 C 13,0 km/h
11.06.2016 14:00 23,9 C 62 % 1008,2 hPa 0,0 l/m 13,6 km/h SW 16,2 C 22,2 C 7,6 km/h
11.06.2016 15:00 24,3 C 55 % 1008,1 hPa 0,0 l/m 26,6 km/h SW 14,7 C 21,1 C 14,8 km/h
11.06.2016 16:00 22,5 C 58 % 1008,1 hPa 0,0 l/m 12,3 km/h NW 13,8 C 20,8 C 6,8 km/h
11.06.2016 17:00 23,1 C 56 % 1008,5 hPa 0,0 l/m 20,7 km/h SW 13,8 C 20,1 C 11,5 km/h
11.06.2016 18:00 19,8 C 66 % 1008,5 hPa 0,0 l/m 29,8 km/h S-SW 13,3 C 14,5 C 16,6 km/h
11.06.2016 19:00 17,6 C 76 % 1008,9 hPa 0,0 l/m 6,5 km/h W-SW 13,3 C 17,6 C 3,6 km/h
11.06.2016 20:00 17,5 C 76 % 1008,8 hPa 0,0 l/m 19,4 km/h S 13,2 C 13,1 C 10,8 km/h
11.06.2016 21:00 16,6 C 79 % 1009,0 hPa 0,0 l/m 1,9 km/h S-SW 12,9 C 16,6 C 1,1 km/h
11.06.2016 22:00 16,1 C 81 % 1009,6 hPa 0,0 l/m 9,1 km/h S 12,8 C 14,7 C 5,0 km/h
11.06.2016 23:00 15,5 C 83 % 1009,7 hPa 0,0 l/m 0,0 km/h W 12,6 C 15,5 C 0,0 km/h
12.06.2016 00:00 15,4 C 84 % 1009,6 hPa 0,0 l/m 11,0 km/h W-SW 12,7 C 13,1 C 6,1 km/h
12.06.2016 01:00 15,3 C 84 % 1009,3 hPa 0,4 l/m 0,0 km/h N-NW 12,6 C 15,3 C 0,0 km/h
12.06.2016 02:00 15,0 C 84 % 1009,2 hPa 0,0 l/m 0,0 km/h S-SO 12,3 C 15,0 C 0,0 km/h
12.06.2016 03:00 15,3 C 83 % 1008,7 hPa 0,0 l/m 2,6 km/h SW 12,4 C 15,3 C 1,4 km/h
12.06.2016 04:00 15,5 C 83 % 1008,5 hPa 0,0 l/m 15,6 km/h W 12,6 C 11,6 C 8,6 km/h
12.06.2016 05:00 14,8 C 84 % 1008,5 hPa 0,0 l/m 10,4 km/h SW 12,1 C 12,7 C 5,8 km/h
12.06.2016 06:00 14,4 C 85 % 1008,6 hPa 0,4 l/m 0,0 km/h S 11,9 C 14,4 C 0,0 km/h
12.06.2016 07:00 14,4 C 84 % 1008,6 hPa 1,2 l/m 18,8 km/h S-SW 11,7 C 9,3 C 10,4 km/h
12.06.2016 08:00 14,9 C 84 % 1008,6 hPa 0,4 l/m 1,9 km/h W-SW 12,2 C 14,9 C 1,1 km/h
12.06.2016 09:00 15,3 C 84 % 1008,5 hPa 0,4 l/m 11,7 km/h W-SW 12,6 C 12,7 C 6,5 km/h
12.06.2016 10:00 15,8 C 84 % 1008,7 hPa 0,0 l/m 7,8 km/h S-SW 13,1 C 15,0 C 4,3 km/h
12.06.2016 11:00 18,9 C 81 % 1008,8 hPa 0,0 l/m 9,7 km/h W 15,6 C 17,5 C 5,4 km/h
12.06.2016 12:00 16,8 C 84 % 1008,6 hPa 0,0 l/m 10,4 km/h S-SW 14,1 C 14,9 C 5,8 km/h
12.06.2016 13:00 20,7 C 74 % 1008,4 hPa 0,0 l/m 22,0 km/h S 15,9 C 16,8 C 12,2 km/h
12.06.2016 14:00 17,3 C 84 % 1008,6 hPa 0,4 l/m 7,8 km/h S 14,6 C 16,6 C 4,3 km/h
12.06.2016 15:00 19,3 C 77 % 1008,4 hPa 0,0 l/m 10,4 km/h S-SW 15,2 C 17,7 C 5,8 km/h
12.06.2016 16:00 19,9 C 73 % 1008,2 hPa 0,0 l/m 40,8 km/h SW 14,9 C 13,5 C 22,7 km/h
12.06.2016 17:00 18,3 C 75 % 1008,4 hPa 0,0 l/m 14,3 km/h S-SW 13,8 C 15,4 C 7,9 km/h
12.06.2016 18:00 18,4 C 75 % 1008,3 hPa 0,0 l/m 21,4 km/h S 13,9 C 13,9 C 11,9 km/h
12.06.2016 19:00 17,9 C 76 % 1008,1 hPa 0,0 l/m 17,5 km/h W 13,6 C 14,1 C 9,7 km/h
12.06.2016 20:00 16,1 C 81 % 1008,3 hPa 0,0 l/m 11,0 km/h W 12,8 C 13,9 C 6,1 km/h
12.06.2016 21:00 14,9 C 83 % 1008,2 hPa 0,4 l/m 0,0 km/h S-SW 12,0 C 14,9 C 0,0 km/h
12.06.2016 22:00 14,7 C 85 % 1008,5 hPa 0,4 l/m 7,1 km/h S-SW 12,2 C 14,3 C 4,0 km/h
12.06.2016 23:00 14,8 C 85 % 1008,0 hPa 0,0 l/m 2,6 km/h S 12,3 C 14,8 C 1,4 km/h
Min-Datum _ 10.06.16 09.06.16 11.06.16 - 06.06.16 - 10.06.16 12.06.16 06.06.16
_ Min-Zeit 05:41 17:41 03:41 - 00:41 - 05:41 07:41 00:41
Minimum _ 10,7 C 31 % 1007,0 hPa - 0,0 km/h - 8,5 C 9,3 C 0,0 km/h
Max-Datum _ 06.06.16 10.06.16 07.06.16 08.06.16 12.06.16 - 06.06.16 06.06.16 12.06.16
_ Max-Zeit 18:41 04:41 08:41 21:41 16:41 - 17:41 18:41 16:41
Maximum _ 32,7 C 86 % 1018,7 hPa 7,0 l/m 40,8 km/h
SW
- 21,2 C 32,7 C 22,7 km/h
SW
Durchschnitt _ 19,0 C 74 % 1013,1 hPa #22,4 l/m 4,0 km/h O-SO 13,8 C 18,4 C 2,2 km/h
www.sexauwetter.de